Smithton, Missouri
Current Conditions -  °F | °C
As of 6:53 PM on Monday 22 Dec 2014 (Local Time) from KDMO Reporting Station
Overcast Overcast  
Wind Chill: 44°   Ceiling: 700
Heat Index: 48°   Visibility: 10mi
Dew Point: 46°   Wind: 9mph
Humidity: 93%   Direction: 230°SW
Pressure: 29.5"   Gusts: NA
Location:  38.68°N, 93.09°W
Report Text: KDMO 230053Z AUTO 23008KT 10SM BKN007 BKN026 OVC032 09/08 A2950 RMK AO2 RAE41 CIG 004V010 SLP991 P0001 T00890078
Loading
Personal Weather Stations






























Interactive Weather Map New forecast layout! Learn more

10-Day Weather Forecast

Advertisements
Track Severe Weather on mobile